Time,TemperatureF,DewpointF,PressureIn,WindDirection,WindDirectionDegrees,WindSpeedMPH,WindSpeedGustMPH,Humidity,HourlyPrecipIn,Conditions,Clouds,dailyrainin,SolarRadiationWatts/m^2,SoftwareType,DateUTC
2013-06-13 00:01:00,61.5,59.5,29.90,NW,313,0.0,0.0,93,0.00,,,0.00,0,Wunderground v.1.15,2013-06-13 04:01:00,
2013-06-13 00:02:00,61.5,59.5,29.90,NW,313,0.0,0.0,93,0.00,,,0.00,0,Wunderground v.1.15,2013-06-13 04:02:00,
2013-06-13 00:03:00,61.5,59.5,29.90,NW,313,0.0,0.0,93,0.00,,,0.00,0,Wunderground v.1.15,2013-06-13 04:03:00,
2013-06-13 00:04:00,61.5,59.8,29.90,NW,313,0.0,0.0,94,0.00,,,0.00,0,Wunderground v.1.15,2013-06-13 04:04:00,
2013-06-13 00:05:00,61.4,59.7,29.90,NW,313,0.0,0.0,94,0.00,,,0.00,0,Wunderground v.1.15,2013-06-13 04:05:00,
2013-06-13 00:10:00,61.4,59.7,29.89,NW,313,0.0,0.0,94,0.00,,,0.00,0,Wunderground v.1.15,2013-06-13 04:10:00,
2013-06-13 00:15:00,61.2,59.5,29.90,NW,313,0.0,0.0,94,0.00,,,0.00,0,Wunderground v.1.15,2013-06-13 04:15:00,
2013-06-13 00:20:00,61.2,59.5,29.90,NW,313,0.0,0.0,94,0.00,,,0.00,0,Wunderground v.1.15,2013-06-13 04:20:00,
2013-06-13 00:25:00,61.2,59.8,29.90,NW,313,0.0,0.0,95,0.00,,,0.00,0,Wunderground v.1.15,2013-06-13 04:25:00,
2013-06-13 00:30:00,61.2,59.8,29.90,NW,313,0.0,0.0,95,0.00,,,0.00,0,Wunderground v.1.15,2013-06-13 04:30:00,
2013-06-13 00:35:00,61.3,59.9,29.90,NW,313,0.0,0.0,95,0.00,,,0.00,0,Wunderground v.1.15,2013-06-13 04:35:00,
2013-06-13 00:40:00,61.3,59.9,29.89,NW,313,0.0,0.0,95,0.00,,,0.00,0,Wunderground v.1.15,2013-06-13 04:40:00,
2013-06-13 00:46:00,61.3,59.9,29.89,NW,313,0.0,0.0,95,0.00,,,0.00,0,Wunderground v.1.15,2013-06-13 04:46:00,
2013-06-13 00:51:00,61.2,59.8,29.89,NW,313,0.0,0.0,95,0.00,,,0.00,0,Wunderground v.1.15,2013-06-13 04:51:00,
2013-06-13 00:56:00,61.1,59.7,29.88,NW,313,0.0,0.0,95,0.00,,,0.00,0,Wunderground v.1.15,2013-06-13 04:56:00,
2013-06-13 01:01:00,61.1,59.7,29.88,NW,313,0.0,0.0,95,0.00,,,0.00,0,Wunderground v.1.15,2013-06-13 05:01:00,
2013-06-13 01:06:00,61.1,59.7,29.88,NW,313,0.0,0.0,95,0.00,,,0.00,0,Wunderground v.1.15,2013-06-13 05:06:00,
2013-06-13 01:12:00,61.1,59.7,29.88,NW,313,0.0,0.0,95,0.00,,,0.00,0,Wunderground v.1.15,2013-06-13 05:12:00,
2013-06-13 01:17:00,61.1,59.7,29.87,NW,313,0.0,0.0,95,0.00,,,0.00,0,Wunderground v.1.15,2013-06-13 05:17:00,
2013-06-13 01:22:00,61.1,59.7,29.87,NW,313,0.0,0.0,95,0.00,,,0.00,0,Wunderground v.1.15,2013-06-13 05:22:00,
2013-06-13 01:27:00,61.0,59.6,29.87,NW,313,0.0,0.0,95,0.00,,,0.00,0,Wunderground v.1.15,2013-06-13 05:27:00,
2013-06-13 01:32:00,60.9,59.5,29.87,NW,313,0.0,0.0,95,0.00,,,0.00,0,Wunderground v.1.15,2013-06-13 05:32:00,
2013-06-13 01:38:00,60.8,59.4,29.87,NW,313,0.0,0.0,95,0.00,,,0.00,0,Wunderground v.1.15,2013-06-13 05:38:00,
2013-06-13 01:43:00,60.7,59.3,29.87,NW,313,0.0,0.0,95,0.00,,,0.00,0,Wunderground v.1.15,2013-06-13 05:43:00,
2013-06-13 01:48:00,60.6,59.2,29.87,NW,313,0.0,0.0,95,0.00,,,0.00,0,Wunderground v.1.15,2013-06-13 05:48:00,
2013-06-13 01:53:00,60.6,59.5,29.87,NW,313,0.0,0.0,96,0.00,,,0.00,0,Wunderground v.1.15,2013-06-13 05:53:00,
2013-06-13 01:58:00,60.6,59.5,29.87,NW,313,0.0,0.0,96,0.00,,,0.00,0,Wunderground v.1.15,2013-06-13 05:58:00,
2013-06-13 02:04:00,60.6,59.5,29.86,NW,313,0.0,0.0,96,0.00,,,0.00,0,Wunderground v.1.15,2013-06-13 06:04:00,
2013-06-13 02:09:00,60.5,59.4,29.87,NW,313,0.0,1.0,96,0.00,,,0.00,0,Wunderground v.1.15,2013-06-13 06:09:00,
2013-06-13 02:14:00,60.3,58.9,29.87,NW,313,0.0,1.0,95,0.00,,,0.00,0,Wunderground v.1.15,2013-06-13 06:14:00,
2013-06-13 02:19:00,60.3,59.2,29.86,NW,313,0.0,1.0,96,0.00,,,0.00,0,Wunderground v.1.15,2013-06-13 06:19:00,
2013-06-13 02:24:00,60.4,59.3,29.86,NW,313,0.0,0.0,96,0.00,,,0.00,0,Wunderground v.1.15,2013-06-13 06:24:00,
2013-06-13 02:30:00,60.5,59.4,29.85,NW,313,0.0,0.0,96,0.00,,,0.00,0,Wunderground v.1.15,2013-06-13 06:30:00,
2013-06-13 02:35:00,60.6,59.5,29.86,NW,313,0.0,0.0,96,0.00,,,0.00,0,Wunderground v.1.15,2013-06-13 06:35:00,
2013-06-13 02:40:00,60.5,59.4,29.86,NW,313,0.0,0.0,96,0.00,,,0.00,0,Wunderground v.1.15,2013-06-13 06:40:00,
2013-06-13 02:45:00,60.5,59.4,29.86,NW,313,0.0,0.0,96,0.00,,,0.00,0,Wunderground v.1.15,2013-06-13 06:45:00,
2013-06-13 02:50:00,60.4,59.3,29.86,NW,313,0.0,0.0,96,0.00,,,0.00,0,Wunderground v.1.15,2013-06-13 06:50:00,
2013-06-13 02:56:00,60.3,59.2,29.87,NW,313,0.0,0.0,96,0.00,,,0.00,0,Wunderground v.1.15,2013-06-13 06:56:00,
2013-06-13 03:01:00,60.4,59.3,29.87,NW,313,0.0,0.0,96,0.00,,,0.00,0,Wunderground v.1.15,2013-06-13 07:01:00,
2013-06-13 03:06:00,60.4,59.3,29.87,NW,313,0.0,0.0,96,0.00,,,0.00,0,Wunderground v.1.15,2013-06-13 07:06:00,
2013-06-13 03:11:00,60.5,59.4,29.87,NW,313,0.0,0.0,96,0.00,,,0.00,0,Wunderground v.1.15,2013-06-13 07:11:00,
2013-06-13 03:16:00,60.5,59.4,29.86,NW,313,0.0,0.0,96,0.00,,,0.00,0,Wunderground v.1.15,2013-06-13 07:16:00,
2013-06-13 03:22:00,60.7,59.6,29.85,NW,313,0.0,0.0,96,0.00,,,0.00,0,Wunderground v.1.15,2013-06-13 07:22:00,
2013-06-13 03:27:00,60.7,59.6,29.86,NW,313,0.0,0.0,96,0.00,,,0.00,0,Wunderground v.1.15,2013-06-13 07:27:00,
2013-06-13 03:32:00,60.7,59.6,29.86,NW,313,0.0,1.0,96,0.00,,,0.00,0,Wunderground v.1.15,2013-06-13 07:32:00,
2013-06-13 03:37:00,60.7,59.6,29.85,NW,313,0.0,1.0,96,0.00,,,0.00,0,Wunderground v.1.15,2013-06-13 07:37:00,
2013-06-13 03:42:00,60.7,59.6,29.85,NW,313,0.0,0.0,96,0.00,,,0.00,0,Wunderground v.1.15,2013-06-13 07:42:00,
2013-06-13 03:48:00,60.7,59.6,29.84,NW,313,0.0,0.0,96,0.00,,,0.00,0,Wunderground v.1.15,2013-06-13 07:48:00,
2013-06-13 03:53:00,60.8,59.7,29.85,NW,313,0.0,1.0,96,0.00,,,0.00,0,Wunderground v.1.15,2013-06-13 07:53:00,
2013-06-13 03:58:00,60.8,59.7,29.85,NW,313,0.0,1.0,96,0.00,,,0.00,0,Wunderground v.1.15,2013-06-13 07:58:00,
2013-06-13 04:03:00,60.8,59.7,29.84,NW,313,0.0,0.0,96,0.00,,,0.00,0,Wunderground v.1.15,2013-06-13 08:03:00,
2013-06-13 04:08:00,60.9,59.8,29.84,NW,313,0.0,0.0,96,0.00,,,0.00,0,Wunderground v.1.15,2013-06-13 08:08:00,
2013-06-13 04:14:00,60.9,59.8,29.84,NW,313,0.0,0.0,96,0.00,,,0.00,0,Wunderground v.1.15,2013-06-13 08:14:00,
2013-06-13 04:19:00,60.9,59.8,29.84,NW,313,0.0,0.0,96,0.00,,,0.00,0,Wunderground v.1.15,2013-06-13 08:19:00,
2013-06-13 04:24:00,61.0,59.9,29.84,NW,313,0.0,0.0,96,0.00,,,0.00,0,Wunderground v.1.15,2013-06-13 08:24:00,
2013-06-13 04:29:00,61.1,60.0,29.84,NW,313,0.0,0.0,96,0.00,,,0.00,0,Wunderground v.1.15,2013-06-13 08:29:00,
2013-06-13 04:34:00,61.1,60.0,29.84,NW,313,0.0,0.0,96,0.00,,,0.00,0,Wunderground v.1.15,2013-06-13 08:34:00,
2013-06-13 04:40:00,61.3,60.2,29.85,NW,313,0.0,0.0,96,0.00,,,0.00,0,Wunderground v.1.15,2013-06-13 08:40:00,
2013-06-13 04:45:00,61.3,60.2,29.85,NW,313,0.0,0.0,96,0.21,,,0.02,0,Wunderground v.1.15,2013-06-13 08:45:00,
2013-06-13 04:50:00,61.4,60.2,29.84,NW,313,0.0,0.0,96,0.39,,,0.05,0,Wunderground v.1.15,2013-06-13 08:50:00,
2013-06-13 04:55:00,61.5,60.3,29.85,NW,313,0.0,2.0,96,0.11,,,0.05,0,Wunderground v.1.15,2013-06-13 08:55:00,
2013-06-13 05:00:00,61.5,60.3,29.85,NW,313,0.0,1.0,96,0.26,,,0.07,0,Wunderground v.1.15,2013-06-13 09:00:00,
2013-06-13 05:05:00,61.6,60.4,29.84,NW,313,0.0,1.0,96,0.23,,,0.09,0,Wunderground v.1.15,2013-06-13 09:05:00,
2013-06-13 05:10:00,61.6,60.4,29.84,NW,313,0.0,0.0,96,0.08,,,0.09,0,Wunderground v.1.15,2013-06-13 09:10:00,
2013-06-13 05:15:00,61.6,60.4,29.84,NW,313,0.0,0.0,96,0.05,,,0.09,0,Wunderground v.1.15,2013-06-13 09:15:00,
2013-06-13 05:20:00,61.6,60.4,29.84,NW,313,0.0,0.0,96,0.04,,,0.10,0,Wunderground v.1.15,2013-06-13 09:20:00,
2013-06-13 05:26:00,61.5,60.3,29.84,NW,313,0.0,0.0,96,0.04,,,0.10,0,Wunderground v.1.15,2013-06-13 09:26:00,
2013-06-13 05:31:00,61.5,60.3,29.84,NW,313,0.0,0.0,96,0.05,,,0.11,0,Wunderground v.1.15,2013-06-13 09:31:00,
2013-06-13 05:36:00,61.4,60.5,29.83,NW,313,0.0,0.0,97,0.05,,,0.11,0,Wunderground v.1.15,2013-06-13 09:36:00,
2013-06-13 05:41:00,61.4,60.5,29.83,NW,313,0.0,0.0,97,0.05,,,0.11,0,Wunderground v.1.15,2013-06-13 09:41:00,
2013-06-13 05:46:00,61.4,60.5,29.83,NW,313,0.0,0.0,97,0.04,,,0.11,0,Wunderground v.1.15,2013-06-13 09:46:00,
2013-06-13 05:51:00,61.4,60.5,29.82,NW,313,0.0,0.0,97,0.00,,,0.11,0,Wunderground v.1.15,2013-06-13 09:51:00,
2013-06-13 05:56:00,61.4,60.5,29.81,NW,313,0.0,0.0,97,0.00,,,0.12,0,Wunderground v.1.15,2013-06-13 09:56:00,
2013-06-13 06:02:00,61.5,60.6,29.81,NW,313,0.0,0.0,97,0.10,,,0.13,0,Wunderground v.1.15,2013-06-13 10:02:00,
2013-06-13 06:07:00,61.4,60.5,29.81,NW,313,0.0,0.0,97,0.09,,,0.13,7,Wunderground v.1.15,2013-06-13 10:07:00,
2013-06-13 06:12:00,61.4,60.5,29.80,NW,313,0.0,0.0,97,0.05,,,0.13,9,Wunderground v.1.15,2013-06-13 10:12:00,
2013-06-13 06:17:00,61.4,60.5,29.80,NW,313,0.0,0.0,97,0.04,,,0.13,12,Wunderground v.1.15,2013-06-13 10:17:00,
2013-06-13 06:22:00,61.4,60.5,29.80,NW,313,0.0,0.0,97,0.00,,,0.13,16,Wunderground v.1.15,2013-06-13 10:22:00,
2013-06-13 06:28:00,61.6,60.4,29.81,NW,313,0.0,0.0,96,0.00,,,0.13,14,Wunderground v.1.15,2013-06-13 10:28:00,
2013-06-13 06:33:00,61.6,60.4,29.80,NW,313,0.0,0.0,96,0.00,,,0.13,14,Wunderground v.1.15,2013-06-13 10:33:00,
2013-06-13 06:38:00,61.6,60.4,29.80,NW,313,0.0,0.0,96,0.00,,,0.13,9,Wunderground v.1.15,2013-06-13 10:38:00,
2013-06-13 06:43:00,61.6,60.4,29.80,NW,313,0.0,2.0,96,0.00,,,0.13,5,Wunderground v.1.15,2013-06-13 10:43:00,
2013-06-13 06:48:00,61.7,60.5,29.81,NW,313,1.0,3.0,96,0.00,,,0.13,0,Wunderground v.1.15,2013-06-13 10:48:00,
2013-06-13 06:54:00,61.6,60.4,29.80,NW,313,1.0,2.0,96,0.00,,,0.13,0,Wunderground v.1.15,2013-06-13 10:54:00,
2013-06-13 06:59:00,61.6,60.4,29.79,NW,313,0.0,2.0,96,0.00,,,0.14,5,Wunderground v.1.15,2013-06-13 10:59:00,
2013-06-13 07:04:00,61.5,60.6,29.78,ESE,104,1.0,4.0,97,0.00,,,0.14,7,Wunderground v.1.15,2013-06-13 11:04:00,
2013-06-13 07:09:00,61.5,60.6,29.75,ENE,76,3.0,5.0,97,0.31,,,0.16,14,Wunderground v.1.15,2013-06-13 11:09:00,
2013-06-13 07:14:00,61.4,60.5,29.76,ESE,106,3.0,3.0,97,0.15,,,0.17,28,Wunderground v.1.15,2013-06-13 11:14:00,
2013-06-13 07:20:00,61.2,60.3,29.78,WSW,240,0.0,3.0,97,0.06,,,0.17,26,Wunderground v.1.15,2013-06-13 11:20:00,
2013-06-13 07:25:00,61.2,60.3,29.80,NW,317,2.0,3.0,97,0.04,,,0.17,35,Wunderground v.1.15,2013-06-13 11:25:00,
2013-06-13 07:30:00,61.3,60.4,29.79,NNW,331,2.0,2.0,97,0.00,,,0.17,51,Wunderground v.1.15,2013-06-13 11:30:00,
2013-06-13 07:35:00,61.5,60.3,29.80,NNW,331,0.0,2.0,96,0.00,,,0.17,44,Wunderground v.1.15,2013-06-13 11:35:00,
2013-06-13 07:40:00,61.7,60.5,29.79,NNW,331,0.0,0.0,96,0.00,,,0.17,44,Wunderground v.1.15,2013-06-13 11:40:00,
2013-06-13 07:46:00,61.8,60.9,29.78,East,94,0.0,2.0,97,0.00,,,0.17,33,Wunderground v.1.15,2013-06-13 11:46:00,
2013-06-13 07:51:00,61.8,60.9,29.78,East,94,0.0,0.0,97,0.00,,,0.17,32,Wunderground v.1.15,2013-06-13 11:51:00,
2013-06-13 07:56:00,61.8,60.9,29.79,East,84,0.0,0.0,97,0.00,,,0.17,28,Wunderground v.1.15,2013-06-13 11:56:00,
2013-06-13 08:01:00,61.7,60.8,29.78,East,84,0.0,0.0,97,0.00,,,0.17,51,Wunderground v.1.15,2013-06-13 12:01:00,
2013-06-13 08:06:00,61.8,60.9,29.78,East,84,0.0,0.0,97,0.00,,,0.17,49,Wunderground v.1.15,2013-06-13 12:06:00,
2013-06-13 08:12:00,62.0,61.1,29.77,East,84,0.0,0.0,97,0.00,,,0.17,37,Wunderground v.1.15,2013-06-13 12:12:00,
2013-06-13 08:17:00,62.0,61.1,29.78,East,84,0.0,1.0,97,0.00,,,0.17,21,Wunderground v.1.15,2013-06-13 12:17:00,
2013-06-13 08:22:00,62.1,61.2,29.77,East,84,0.0,0.0,97,0.00,,,0.17,26,Wunderground v.1.15,2013-06-13 12:22:00,
2013-06-13 08:27:00,62.1,61.2,29.77,East,84,0.0,0.0,97,0.00,,,0.17,25,Wunderground v.1.15,2013-06-13 12:27:00,
2013-06-13 08:32:00,62.2,61.3,29.76,East,85,0.0,0.0,97,0.00,,,0.17,30,Wunderground v.1.15,2013-06-13 12:32:00,
2013-06-13 08:38:00,62.4,61.5,29.76,East,85,0.0,0.0,97,0.00,,,0.17,14,Wunderground v.1.15,2013-06-13 12:38:00,
2013-06-13 08:43:00,62.4,61.5,29.76,East,85,0.0,0.0,97,0.00,,,0.17,14,Wunderground v.1.15,2013-06-13 12:43:00,
2013-06-13 08:48:00,62.4,61.5,29.75,East,85,0.0,0.0,97,0.00,,,0.18,23,Wunderground v.1.15,2013-06-13 12:48:00,
2013-06-13 08:53:00,62.4,61.5,29.77,East,86,0.0,0.0,97,0.00,,,0.18,5,Wunderground v.1.15,2013-06-13 12:53:00,
2013-06-13 08:58:00,62.2,61.3,29.77,East,86,0.0,0.0,97,0.08,,,0.19,16,Wunderground v.1.15,2013-06-13 12:58:00,
2013-06-13 09:03:00,62.2,61.3,29.76,East,86,0.0,1.0,97,0.29,,,0.23,32,Wunderground v.1.15,2013-06-13 13:03:00,
2013-06-13 09:08:00,62.2,61.3,29.75,East,86,0.0,1.0,97,0.21,,,0.25,76,Wunderground v.1.15,2013-06-13 13:08:00,
2013-06-13 09:14:00,62.3,61.4,29.75,East,87,0.0,2.0,97,0.08,,,0.25,97,Wunderground v.1.15,2013-06-13 13:14:00,
2013-06-13 09:19:00,62.3,61.4,29.75,SSW,197,0.0,2.0,97,0.06,,,0.26,81,Wunderground v.1.15,2013-06-13 13:19:00,
2013-06-13 09:24:00,62.4,61.5,29.74,East,99,0.0,1.0,97,0.06,,,0.26,95,Wunderground v.1.15,2013-06-13 13:24:00,
2013-06-13 09:29:00,62.3,61.4,29.71,NE,51,1.0,2.0,97,0.05,,,0.26,76,Wunderground v.1.15,2013-06-13 13:29:00,
2013-06-13 09:34:00,62.3,61.4,29.72,ENE,66,1.0,1.0,97,0.04,,,0.27,56,Wunderground v.1.15,2013-06-13 13:34:00,
2013-06-13 09:39:00,62.2,61.3,29.73,ENE,65,1.0,1.0,97,0.04,,,0.27,53,Wunderground v.1.15,2013-06-13 13:39:00,
2013-06-13 09:44:00,62.3,61.4,29.73,East,96,1.0,2.0,97,0.04,,,0.27,28,Wunderground v.1.15,2013-06-13 13:44:00,
2013-06-13 09:49:00,62.4,61.5,29.74,East,96,1.0,2.0,97,0.51,,,0.30,16,Wunderground v.1.15,2013-06-13 13:49:00,
2013-06-13 09:55:00,62.4,61.5,29.72,East,86,1.0,2.0,97,0.53,,,0.38,16,Wunderground v.1.15,2013-06-13 13:55:00,
2013-06-13 10:00:00,62.3,61.4,29.73,South,175,1.0,1.0,97,0.27,,,0.40,5,Wunderground v.1.15,2013-06-13 14:00:00,
2013-06-13 10:05:00,62.2,61.3,29.73,South,175,0.0,1.0,97,0.72,,,0.43,5,Wunderground v.1.15,2013-06-13 14:05:00,
2013-06-13 10:10:00,62.0,61.1,29.74,SE,131,0.0,2.0,97,0.29,,,0.48,11,Wunderground v.1.15,2013-06-13 14:10:00,
2013-06-13 10:15:00,61.9,61.0,29.74,East,89,1.0,3.0,97,0.26,,,0.52,9,Wunderground v.1.15,2013-06-13 14:15:00,
2013-06-13 10:20:00,61.7,60.5,29.73,ESE,123,1.0,2.0,96,0.64,,,0.54,14,Wunderground v.1.15,2013-06-13 14:20:00,
2013-06-13 10:26:00,61.5,60.6,29.70,ENE,63,1.0,3.0,97,0.40,,,0.67,30,Wunderground v.1.15,2013-06-13 14:26:00,
2013-06-13 10:31:00,61.4,60.5,29.70,ESE,103,1.0,1.0,97,0.17,,,0.68,62,Wunderground v.1.15,2013-06-13 14:31:00,
2013-06-13 10:36:00,61.3,60.4,29.69,NE,53,1.0,2.0,97,0.13,,,0.69,105,Wunderground v.1.15,2013-06-13 14:36:00,
2013-06-13 10:42:00,61.4,60.5,29.69,ENE,73,1.0,4.0,97,0.07,,,0.69,128,Wunderground v.1.15,2013-06-13 14:42:00,
2013-06-13 10:47:00,61.6,60.7,29.68,ENE,70,2.0,4.0,97,0.04,,,0.69,125,Wunderground v.1.15,2013-06-13 14:47:00,
2013-06-13 10:52:00,61.8,60.9,29.69,ENE,69,1.0,2.0,97,0.00,,,0.69,111,Wunderground v.1.15,2013-06-13 14:52:00,
2013-06-13 10:57:00,61.8,60.9,29.69,ENE,66,2.0,3.0,97,0.00,,,0.69,142,Wunderground v.1.15,2013-06-13 14:57:00,
2013-06-13 11:02:00,61.9,61.0,29.68,ENE,78,2.0,3.0,97,0.00,,,0.69,135,Wunderground v.1.15,2013-06-13 15:02:00,
2013-06-13 11:07:00,62.1,61.2,29.68,East,98,1.0,4.0,97,0.00,,,0.69,160,Wunderground v.1.15,2013-06-13 15:07:00,
2013-06-13 11:12:00,62.2,61.3,29.68,ESE,117,1.0,2.0,97,0.00,,,0.69,149,Wunderground v.1.15,2013-06-13 15:12:00,
2013-06-13 11:18:00,62.5,61.6,29.69,ENE,76,1.0,3.0,97,0.00,,,0.69,200,Wunderground v.1.15,2013-06-13 15:18:00,
2013-06-13 11:23:00,62.7,61.8,29.69,ENE,74,1.0,4.0,97,0.00,,,0.69,213,Wunderground v.1.15,2013-06-13 15:23:00,
2013-06-13 11:28:00,62.6,61.7,29.69,ESE,106,3.0,4.0,97,0.00,,,0.69,141,Wunderground v.1.15,2013-06-13 15:28:00,
2013-06-13 11:33:00,62.6,61.4,29.68,ESE,118,4.0,5.0,96,0.00,,,0.69,169,Wunderground v.1.15,2013-06-13 15:33:00,
2013-06-13 11:38:00,62.7,61.5,29.68,East,84,3.0,6.0,96,0.00,,,0.69,171,Wunderground v.1.15,2013-06-13 15:38:00,
2013-06-13 11:44:00,62.8,61.6,29.67,ENE,75,3.0,3.0,96,0.00,,,0.69,105,Wunderground v.1.15,2013-06-13 15:44:00,
2013-06-13 11:49:00,62.8,61.6,29.65,ENE,74,2.0,3.0,96,0.00,,,0.69,153,Wunderground v.1.15,2013-06-13 15:49:00,
2013-06-13 11:54:00,62.9,61.7,29.63,ENE,67,2.0,3.0,96,0.00,,,0.69,181,Wunderground v.1.15,2013-06-13 15:54:00,
2013-06-13 11:59:00,63.1,61.9,29.63,ENE,71,1.0,4.0,96,0.00,,,0.69,230,Wunderground v.1.15,2013-06-13 15:59:00,
2013-06-13 12:04:00,63.3,62.1,29.63,SE,140,1.0,4.0,96,0.00,,,0.69,165,Wunderground v.1.15,2013-06-13 16:04:00,
2013-06-13 12:10:00,63.3,61.8,29.63,SE,130,2.0,5.0,95,0.00,,,0.69,149,Wunderground v.1.15,2013-06-13 16:10:00,
2013-06-13 12:15:00,63.4,61.9,29.64,East,97,3.0,7.0,95,0.00,,,0.69,134,Wunderground v.1.15,2013-06-13 16:15:00,
2013-06-13 12:20:00,63.4,61.6,29.64,East,90,3.0,3.0,94,0.00,,,0.69,165,Wunderground v.1.15,2013-06-13 16:20:00,
2013-06-13 12:25:00,63.6,61.8,29.63,ENE,65,2.0,4.0,94,0.00,,,0.69,134,Wunderground v.1.15,2013-06-13 16:25:00,
2013-06-13 12:30:00,63.8,62.0,29.64,East,92,1.0,1.0,94,0.00,,,0.69,114,Wunderground v.1.15,2013-06-13 16:30:00,
2013-06-13 12:36:00,64.0,62.2,29.64,ENE,78,1.0,2.0,94,0.00,,,0.69,113,Wunderground v.1.15,2013-06-13 16:36:00,
2013-06-13 12:41:00,64.0,61.9,29.63,ENE,65,1.0,1.0,93,0.00,,,0.69,127,Wunderground v.1.15,2013-06-13 16:41:00,
2013-06-13 12:46:00,64.1,62.3,29.63,ENE,73,1.0,2.0,94,0.00,,,0.69,148,Wunderground v.1.15,2013-06-13 16:46:00,
2013-06-13 12:51:00,64.1,62.3,29.63,ENE,65,1.0,1.0,94,0.00,,,0.69,146,Wunderground v.1.15,2013-06-13 16:51:00,
2013-06-13 12:56:00,64.2,62.1,29.63,ENE,68,1.0,2.0,93,0.00,,,0.69,153,Wunderground v.1.15,2013-06-13 16:56:00,
2013-06-13 13:02:00,64.4,62.3,29.64,ENE,69,2.0,2.0,93,0.00,,,0.69,132,Wunderground v.1.15,2013-06-13 17:02:00,
2013-06-13 13:07:00,64.6,62.5,29.63,ENE,74,2.0,3.0,93,0.00,,,0.69,127,Wunderground v.1.15,2013-06-13 17:07:00,
2013-06-13 13:12:00,64.7,62.6,29.63,ESE,109,1.0,2.0,93,0.00,,,0.69,121,Wunderground v.1.15,2013-06-13 17:12:00,
2013-06-13 13:17:00,64.8,62.7,29.63,East,89,1.0,2.0,93,0.00,,,0.69,172,Wunderground v.1.15,2013-06-13 17:17:00,
2013-06-13 13:22:00,64.9,62.8,29.62,ENE,65,1.0,2.0,93,0.00,,,0.69,148,Wunderground v.1.15,2013-06-13 17:22:00,
2013-06-13 13:28:00,65.0,62.6,29.63,ENE,73,1.0,3.0,92,0.00,,,0.69,90,Wunderground v.1.15,2013-06-13 17:28:00,
2013-06-13 13:33:00,65.0,62.6,29.62,ESE,107,1.0,2.0,92,0.00,,,0.69,135,Wunderground v.1.15,2013-06-13 17:33:00,
2013-06-13 13:38:00,65.1,63.0,29.62,ENE,74,1.0,3.0,93,0.00,,,0.69,107,Wunderground v.1.15,2013-06-13 17:38:00,
2013-06-13 13:43:00,65.1,62.7,29.62,ENE,65,1.0,2.0,92,0.00,,,0.69,72,Wunderground v.1.15,2013-06-13 17:43:00,
2013-06-13 13:48:00,65.1,62.7,29.62,ENE,76,1.0,2.0,92,0.00,,,0.69,70,Wunderground v.1.15,2013-06-13 17:48:00,
2013-06-13 13:54:00,65.1,62.7,29.61,ENE,66,0.0,2.0,92,0.00,,,0.69,76,Wunderground v.1.15,2013-06-13 17:54:00,
2013-06-13 13:59:00,65.1,63.0,29.61,ENE,70,1.0,2.0,93,0.00,,,0.69,88,Wunderground v.1.15,2013-06-13 17:59:00,
2013-06-13 14:04:00,65.2,63.1,29.60,ENE,69,1.0,1.0,93,0.00,,,0.69,121,Wunderground v.1.15,2013-06-13 18:04:00,
2013-06-13 14:09:00,65.3,63.2,29.60,ENE,59,1.0,4.0,93,0.00,,,0.69,116,Wunderground v.1.15,2013-06-13 18:09:00,
2013-06-13 14:14:00,65.4,63.3,29.60,ENE,73,2.0,4.0,93,0.00,,,0.69,97,Wunderground v.1.15,2013-06-13 18:14:00,
2013-06-13 14:20:00,65.3,63.2,29.60,East,81,1.0,1.0,93,0.00,,,0.69,97,Wunderground v.1.15,2013-06-13 18:20:00,
2013-06-13 14:25:00,65.3,63.2,29.59,ESE,103,1.0,3.0,93,0.00,,,0.69,104,Wunderground v.1.15,2013-06-13 18:25:00,
2013-06-13 14:30:00,65.2,62.8,29.59,ENE,65,2.0,2.0,92,0.00,,,0.69,93,Wunderground v.1.15,2013-06-13 18:30:00,
2013-06-13 14:35:00,65.2,62.8,29.59,ENE,67,1.0,4.0,92,0.00,,,0.69,104,Wunderground v.1.15,2013-06-13 18:35:00,
2013-06-13 14:40:00,65.1,62.7,29.59,ENE,71,1.0,1.0,92,0.00,,,0.69,62,Wunderground v.1.15,2013-06-13 18:40:00,
2013-06-13 14:46:00,64.9,62.5,29.59,ENE,68,2.0,4.0,92,0.00,,,0.69,58,Wunderground v.1.15,2013-06-13 18:46:00,
2013-06-13 14:51:00,64.9,62.5,29.60,East,96,1.0,2.0,92,0.00,,,0.69,63,Wunderground v.1.15,2013-06-13 18:51:00,
2013-06-13 14:56:00,64.9,62.5,29.60,ESE,115,1.0,2.0,92,0.00,,,0.69,76,Wunderground v.1.15,2013-06-13 18:56:00,
2013-06-13 15:01:00,64.8,62.4,29.60,ENE,70,1.0,2.0,92,0.00,,,0.69,62,Wunderground v.1.15,2013-06-13 19:01:00,
2013-06-13 15:06:00,64.7,62.3,29.60,NNE,33,1.0,3.0,92,0.00,,,0.69,74,Wunderground v.1.15,2013-06-13 19:06:00,
2013-06-13 15:11:00,64.6,62.2,29.60,ESE,121,3.0,7.0,92,0.00,,,0.69,120,Wunderground v.1.15,2013-06-13 19:11:00,
2013-06-13 15:16:00,64.5,62.1,29.60,East,94,3.0,7.0,92,0.00,,,0.69,162,Wunderground v.1.15,2013-06-13 19:16:00,
2013-06-13 15:21:00,64.5,62.1,29.60,ESE,108,3.0,5.0,92,0.00,,,0.69,128,Wunderground v.1.15,2013-06-13 19:21:00,
2013-06-13 15:26:00,64.6,62.2,29.59,ENE,74,2.0,8.0,92,0.00,,,0.69,130,Wunderground v.1.15,2013-06-13 19:26:00,
2013-06-13 15:31:00,64.7,62.3,29.59,ENE,74,2.0,2.0,92,0.00,,,0.69,116,Wunderground v.1.15,2013-06-13 19:31:00,
2013-06-13 15:36:00,64.9,62.5,29.58,ENE,67,1.0,4.0,92,0.00,,,0.69,171,Wunderground v.1.15,2013-06-13 19:36:00,
2013-06-13 15:42:00,64.9,62.5,29.58,ENE,58,2.0,4.0,92,0.00,,,0.69,109,Wunderground v.1.15,2013-06-13 19:42:00,
2013-06-13 15:47:00,64.9,62.2,29.58,ENE,75,2.0,4.0,91,0.00,,,0.69,174,Wunderground v.1.15,2013-06-13 19:47:00,
2013-06-13 15:52:00,64.9,62.5,29.57,ENE,76,3.0,9.0,92,0.00,,,0.69,130,Wunderground v.1.15,2013-06-13 19:52:00,
2013-06-13 15:57:00,64.9,62.5,29.57,NE,55,3.0,9.0,92,0.00,,,0.69,134,Wunderground v.1.15,2013-06-13 19:57:00,
2013-06-13 16:02:00,64.9,62.5,29.56,ENE,78,2.0,2.0,92,0.00,,,0.69,114,Wunderground v.1.15,2013-06-13 20:02:00,
2013-06-13 16:08:00,64.9,62.8,29.56,NE,38,2.0,5.0,93,0.00,,,0.69,100,Wunderground v.1.15,2013-06-13 20:08:00,
2013-06-13 16:13:00,64.9,62.8,29.56,ENE,58,2.0,2.0,93,0.00,,,0.69,90,Wunderground v.1.15,2013-06-13 20:13:00,
2013-06-13 16:18:00,64.8,62.7,29.56,ENE,57,2.0,2.0,93,0.00,,,0.69,79,Wunderground v.1.15,2013-06-13 20:18:00,
2013-06-13 16:23:00,64.9,63.1,29.56,ENE,61,1.0,3.0,94,0.00,,,0.69,79,Wunderground v.1.15,2013-06-13 20:23:00,
2013-06-13 16:28:00,64.8,63.0,29.55,East,83,1.0,3.0,94,0.00,,,0.69,69,Wunderground v.1.15,2013-06-13 20:28:00,
2013-06-13 16:34:00,64.8,63.0,29.54,ENE,60,2.0,4.0,94,0.00,,,0.69,54,Wunderground v.1.15,2013-06-13 20:34:00,
2013-06-13 16:39:00,64.8,63.0,29.54,East,94,1.0,4.0,94,0.00,,,0.69,91,Wunderground v.1.15,2013-06-13 20:39:00,
2013-06-13 16:44:00,64.9,63.4,29.53,ESE,109,1.0,2.0,95,0.00,,,0.69,74,Wunderground v.1.15,2013-06-13 20:44:00,
2013-06-13 16:49:00,64.9,63.4,29.52,ESE,109,1.0,3.0,95,0.00,,,0.69,81,Wunderground v.1.15,2013-06-13 20:49:00,
2013-06-13 16:54:00,64.9,63.4,29.52,East,100,2.0,3.0,95,0.00,,,0.69,39,Wunderground v.1.15,2013-06-13 20:54:00,
2013-06-13 17:00:00,65.0,63.5,29.51,ESE,103,2.0,2.0,95,0.00,,,0.69,46,Wunderground v.1.15,2013-06-13 21:00:00,
2013-06-13 17:05:00,65.1,63.6,29.51,ESE,119,2.0,6.0,95,0.00,,,0.69,40,Wunderground v.1.15,2013-06-13 21:05:00,
2013-06-13 17:10:00,65.2,63.7,29.51,East,82,2.0,2.0,95,0.00,,,0.69,28,Wunderground v.1.15,2013-06-13 21:10:00,
2013-06-13 17:15:00,65.2,63.7,29.51,ESE,107,1.0,2.0,95,0.00,,,0.69,19,Wunderground v.1.15,2013-06-13 21:15:00,
2013-06-13 17:20:00,65.3,63.8,29.50,ENE,76,1.0,1.0,95,0.00,,,0.69,28,Wunderground v.1.15,2013-06-13 21:20:00,
2013-06-13 17:25:00,65.2,63.7,29.50,ENE,76,1.0,2.0,95,0.00,,,0.69,19,Wunderground v.1.15,2013-06-13 21:25:00,
2013-06-13 17:31:00,65.2,63.7,29.50,ENE,75,2.0,2.0,95,0.00,,,0.69,16,Wunderground v.1.15,2013-06-13 21:31:00,
2013-06-13 17:36:00,65.2,63.7,29.50,SE,135,1.0,2.0,95,0.00,,,0.69,14,Wunderground v.1.15,2013-06-13 21:36:00,
2013-06-13 17:41:00,65.1,63.6,29.49,ESE,104,1.0,3.0,95,0.00,,,0.69,16,Wunderground v.1.15,2013-06-13 21:41:00,
2013-06-13 17:46:00,65.2,63.7,29.49,NE,46,1.0,3.0,95,0.00,,,0.69,14,Wunderground v.1.15,2013-06-13 21:46:00,
2013-06-13 17:51:00,65.1,63.6,29.49,East,101,1.0,6.0,95,0.00,,,0.69,11,Wunderground v.1.15,2013-06-13 21:51:00,
2013-06-13 17:57:00,65.0,63.5,29.48,ENE,69,2.0,6.0,95,0.00,,,0.69,9,Wunderground v.1.15,2013-06-13 21:57:00,
2013-06-13 18:02:00,64.8,63.3,29.53,WSW,254,2.0,14.0,95,0.89,,,0.72,0,Wunderground v.1.15,2013-06-13 22:02:00,
2013-06-13 18:07:00,64.4,63.2,29.50,ENE,63,5.0,14.0,96,0.83,,,0.87,42,Wunderground v.1.15,2013-06-13 22:07:00,
2013-06-13 18:12:00,64.1,62.9,29.51,ENE,63,4.0,5.0,96,0.16,,,0.89,47,Wunderground v.1.15,2013-06-13 22:12:00,
2013-06-13 18:17:00,64.1,62.9,29.51,ENE,63,1.0,5.0,96,0.07,,,0.89,58,Wunderground v.1.15,2013-06-13 22:17:00,
2013-06-13 18:23:00,64.0,62.8,29.51,WNW,296,0.0,2.0,96,0.04,,,0.89,30,Wunderground v.1.15,2013-06-13 22:23:00,
2013-06-13 18:28:00,63.8,62.6,29.51,South,186,1.0,3.0,96,0.04,,,0.90,18,Wunderground v.1.15,2013-06-13 22:28:00,
2013-06-13 18:33:00,63.7,62.5,29.51,South,186,1.0,1.0,96,0.08,,,0.91,19,Wunderground v.1.15,2013-06-13 22:33:00,
2013-06-13 18:38:00,63.7,62.5,29.51,South,186,0.0,2.0,96,0.63,,,0.95,11,Wunderground v.1.15,2013-06-13 22:38:00,
2013-06-13 18:43:00,63.8,62.6,29.51,ESE,110,1.0,3.0,96,0.35,,,0.99,30,Wunderground v.1.15,2013-06-13 22:43:00,
2013-06-13 18:49:00,63.7,62.5,29.50,ESE,103,1.0,3.0,96,0.18,,,1.01,26,Wunderground v.1.15,2013-06-13 22:49:00,
2013-06-13 18:54:00,63.8,62.9,29.50,ESE,106,0.0,1.0,97,0.07,,,1.01,53,Wunderground v.1.15,2013-06-13 22:54:00,
2013-06-13 18:59:00,63.8,62.9,29.51,SSE,162,1.0,3.0,97,0.05,,,1.01,54,Wunderground v.1.15,2013-06-13 22:59:00,
2013-06-13 19:04:00,63.8,62.9,29.51,SSE,162,0.0,1.0,97,0.00,,,1.01,54,Wunderground v.1.15,2013-06-13 23:04:00,
2013-06-13 19:09:00,63.9,63.0,29.51,West,271,0.0,1.0,97,0.00,,,1.01,32,Wunderground v.1.15,2013-06-13 23:09:00,
2013-06-13 19:14:00,63.9,63.0,29.52,NW,313,2.0,5.0,97,0.00,,,1.01,21,Wunderground v.1.15,2013-06-13 23:14:00,
2013-06-13 19:19:00,63.8,62.9,29.51,NW,307,3.0,5.0,97,0.00,,,1.01,23,Wunderground v.1.15,2013-06-13 23:19:00,
2013-06-13 19:24:00,63.8,62.9,29.51,NW,307,1.0,2.0,97,0.00,,,1.01,11,Wunderground v.1.15,2013-06-13 23:24:00,
2013-06-13 19:29:00,63.8,62.9,29.51,NW,307,0.0,2.0,97,0.00,,,1.01,11,Wunderground v.1.15,2013-06-13 23:29:00,
2013-06-13 19:34:00,63.7,62.8,29.51,NW,307,0.0,19.0,97,0.00,,,1.01,14,Wunderground v.1.15,2013-06-13 23:34:00,
2013-06-13 19:39:00,63.6,62.7,29.51,NW,307,0.0,19.0,97,0.00,,,1.01,14,Wunderground v.1.15,2013-06-13 23:39:00,
2013-06-13 19:45:00,63.6,62.7,29.52,NW,307,0.0,19.0,97,0.00,,,1.01,18,Wunderground v.1.15,2013-06-13 23:45:00,
2013-06-13 19:50:00,63.5,62.6,29.52,NW,307,0.0,19.0,97,0.00,,,1.01,9,Wunderground v.1.15,2013-06-13 23:50:00,
2013-06-13 19:55:00,63.5,62.6,29.52,NW,307,0.0,19.0,97,0.00,,,1.01,7,Wunderground v.1.15,2013-06-13 23:55:00,
2013-06-13 20:00:00,63.5,62.6,29.52,NW,307,0.0,19.0,97,0.00,,,1.01,9,Wunderground v.1.15,2013-06-14 00:00:00,
2013-06-13 20:05:00,63.5,62.6,29.52,NW,307,0.0,19.0,97,0.00,,,1.01,7,Wunderground v.1.15,2013-06-14 00:05:00,
2013-06-13 20:11:00,63.3,62.4,29.52,NW,307,0.0,19.0,97,0.00,,,1.01,7,Wunderground v.1.15,2013-06-14 00:11:00,
2013-06-13 20:16:00,63.1,62.2,29.52,NW,307,0.0,19.0,97,0.00,,,1.01,5,Wunderground v.1.15,2013-06-14 00:16:00,
2013-06-13 20:21:00,62.9,62.0,29.52,East,80,0.0,19.0,97,0.00,,,1.01,0,Wunderground v.1.15,2013-06-14 00:21:00,
2013-06-13 20:26:00,62.5,61.6,29.52,East,80,0.0,19.0,97,0.00,,,1.01,0,Wunderground v.1.15,2013-06-14 00:26:00,
2013-06-13 20:31:00,62.2,61.3,29.52,North,5,0.0,19.0,97,0.00,,,1.01,0,Wunderground v.1.15,2013-06-14 00:31:00,
2013-06-13 20:37:00,61.9,61.0,29.52,NNW,333,1.0,19.0,97,0.00,,,1.01,0,Wunderground v.1.15,2013-06-14 00:37:00,
2013-06-13 20:42:00,61.7,60.8,29.52,NNW,333,1.0,19.0,97,0.00,,,1.01,0,Wunderground v.1.15,2013-06-14 00:42:00,
2013-06-13 20:47:00,61.6,60.7,29.53,NNW,333,0.0,19.0,97,0.00,,,1.01,0,Wunderground v.1.15,2013-06-14 00:47:00,
2013-06-13 20:52:00,61.4,60.5,29.53,NNW,333,0.0,19.0,97,0.00,,,1.01,0,Wunderground v.1.15,2013-06-14 00:52:00,
2013-06-13 20:57:00,61.4,60.5,29.53,NNW,333,0.0,19.0,97,0.00,,,1.01,0,Wunderground v.1.15,2013-06-14 00:57:00,
2013-06-13 21:03:00,61.3,60.4,29.53,NE,36,0.0,19.0,97,0.00,,,1.01,0,Wunderground v.1.15,2013-06-14 01:03:00,
2013-06-13 21:08:00,61.1,60.2,29.53,ENE,71,0.0,19.0,97,0.00,,,1.01,0,Wunderground v.1.15,2013-06-14 01:08:00,
2013-06-13 21:13:00,61.0,60.1,29.53,NNW,327,0.0,19.0,97,0.00,,,1.01,0,Wunderground v.1.15,2013-06-14 01:13:00,
2013-06-13 21:18:00,60.9,60.0,29.53,NW,311,1.0,19.0,97,0.00,,,1.01,0,Wunderground v.1.15,2013-06-14 01:18:00,
2013-06-13 21:23:00,60.8,59.9,29.54,WNW,285,1.0,19.0,97,0.00,,,1.01,0,Wunderground v.1.15,2013-06-14 01:23:00,
2013-06-13 21:29:00,60.8,59.9,29.54,WNW,303,1.0,19.0,97,0.00,,,1.01,0,Wunderground v.1.15,2013-06-14 01:29:00,
2013-06-13 21:34:00,60.7,59.8,29.54,WNW,300,0.0,19.0,97,0.00,,,1.01,0,Wunderground v.1.15,2013-06-14 01:34:00,
2013-06-13 21:39:00,60.7,59.8,29.54,WNW,300,0.0,19.0,97,0.00,,,1.01,0,Wunderground v.1.15,2013-06-14 01:39:00,
2013-06-13 21:44:00,60.6,59.7,29.55,SE,143,0.0,19.0,97,0.00,,,1.01,0,Wunderground v.1.15,2013-06-14 01:44:00,
2013-06-13 21:49:00,60.6,59.5,29.55,WNW,295,1.0,19.0,96,0.00,,,1.01,0,Wunderground v.1.15,2013-06-14 01:49:00,
2013-06-13 21:55:00,60.5,59.4,29.55,West,279,1.0,19.0,96,0.00,,,1.01,0,Wunderground v.1.15,2013-06-14 01:55:00,
2013-06-13 22:00:00,60.4,59.3,29.56,West,265,1.0,19.0,96,0.00,,,1.01,0,Wunderground v.1.15,2013-06-14 02:00:00,
2013-06-13 22:05:00,60.4,59.3,29.56,West,272,1.0,19.0,96,0.00,,,1.01,0,Wunderground v.1.15,2013-06-14 02:05:00,
2013-06-13 22:10:00,60.4,59.3,29.56,NE,51,0.0,19.0,96,0.00,,,1.01,0,Wunderground v.1.15,2013-06-14 02:10:00,
2013-06-13 22:15:00,60.3,59.2,29.57,West,281,0.0,19.0,96,0.00,,,1.01,0,Wunderground v.1.15,2013-06-14 02:15:00,
2013-06-13 22:21:00,60.2,59.1,29.57,SW,236,1.0,19.0,96,0.00,,,1.02,0,Wunderground v.1.15,2013-06-14 02:21:00,
2013-06-13 22:26:00,59.9,58.8,29.57,West,281,1.0,19.0,96,0.00,,,1.02,0,Wunderground v.1.15,2013-06-14 02:26:00,
2013-06-13 22:31:00,59.8,58.7,29.57,NE,51,1.0,19.0,96,0.06,,,1.02,0,Wunderground v.1.15,2013-06-14 02:31:00,
2013-06-13 22:36:00,59.7,58.6,29.57,NE,35,1.0,19.0,96,0.06,,,1.03,0,Wunderground v.1.15,2013-06-14 02:36:00,
2013-06-13 22:41:00,59.5,58.4,29.57,NW,313,0.0,19.0,96,0.08,,,1.04,0,Wunderground v.1.15,2013-06-14 02:41:00,
2013-06-13 22:47:00,59.3,58.2,29.57,East,82,1.0,19.0,96,0.13,,,1.05,0,Wunderground v.1.15,2013-06-14 02:47:00,
2013-06-13 22:52:00,59.2,58.1,29.58,NE,34,1.0,19.0,96,0.10,,,1.06,0,Wunderground v.1.15,2013-06-14 02:52:00,
2013-06-13 22:57:00,59.0,57.9,29.58,NNW,334,1.0,19.0,96,0.15,,,1.07,0,Wunderground v.1.15,2013-06-14 02:57:00,
2013-06-13 23:02:00,58.9,57.8,29.58,WNW,285,0.0,19.0,96,0.22,,,1.09,0,Wunderground v.1.15,2013-06-14 03:02:00,
2013-06-13 23:07:00,58.7,57.6,29.58,NW,312,1.0,19.0,96,0.41,,,1.11,0,Wunderground v.1.15,2013-06-14 03:07:00,
2013-06-13 23:12:00,58.6,57.8,29.58,NW,312,0.0,19.0,97,0.22,,,1.13,0,Wunderground v.1.15,2013-06-14 03:12:00,
2013-06-13 23:17:00,58.6,57.5,29.58,NW,312,0.0,19.0,96,0.19,,,1.14,0,Wunderground v.1.15,2013-06-14 03:17:00,
2013-06-13 23:22:00,58.4,57.3,29.58,NW,305,0.0,19.0,96,0.13,,,1.15,0,Wunderground v.1.15,2013-06-14 03:22:00,
2013-06-13 23:27:00,58.3,57.5,29.58,WSW,256,0.0,19.0,97,0.09,,,1.16,0,Wunderground v.1.15,2013-06-14 03:27:00,
2013-06-13 23:32:00,58.2,57.4,29.59,WNW,289,0.0,19.0,97,0.11,,,1.17,0,Wunderground v.1.15,2013-06-14 03:32:00,
2013-06-13 23:37:00,58.0,57.2,29.59,WNW,297,1.0,19.0,97,0.08,,,1.18,0,Wunderground v.1.15,2013-06-14 03:37:00,
2013-06-13 23:43:00,57.9,57.1,29.59,NW,306,1.0,19.0,97,0.08,,,1.18,0,Wunderground v.1.15,2013-06-14 03:43:00,
2013-06-13 23:48:00,57.8,57.0,29.60,NW,305,1.0,19.0,97,0.09,,,1.19,0,Wunderground v.1.15,2013-06-14 03:48:00,
2013-06-13 23:53:00,57.8,57.0,29.60,NW,305,0.0,19.0,97,0.06,,,1.19,0,Wunderground v.1.15,2013-06-14 03:53:00,
2013-06-13 23:58:00,57.7,56.9,29.60,NW,305,0.0,19.0,97,0.04,,,1.20,0,Wunderground v.1.15,2013-06-14 03:58:00,